createdAt,value
2022-12-03T00:01:11.369Z,30.70
2022-12-03T00:04:53.767Z,31.90
2022-12-03T00:08:36.301Z,22.40
2022-12-03T00:12:18.818Z,28.70
2022-12-03T00:16:02.030Z,35.90
2022-12-03T00:19:44.672Z,29.30
2022-12-03T00:23:27.905Z,30.40
2022-12-03T00:27:10.318Z,29.20
2022-12-03T00:30:54.485Z,32.80
2022-12-03T00:34:36.991Z,27.50
2022-12-03T00:38:19.408Z,35.30
2022-12-03T00:42:01.822Z,28.90
2022-12-03T00:45:43.723Z,32.20
2022-12-03T00:49:26.239Z,32.50
2022-12-03T00:53:08.350Z,29.30
2022-12-03T00:56:50.659Z,24.90
2022-12-03T01:00:32.767Z,20.70
2022-12-03T01:04:15.510Z,25.50
2022-12-03T01:07:58.304Z,21.40
2022-12-03T01:11:41.564Z,28.00
2022-12-03T01:15:24.472Z,27.70
2022-12-03T01:19:08.463Z,29.90
2022-12-03T01:22:50.530Z,24.40
2022-12-03T01:26:33.355Z,26.30
2022-12-03T01:30:15.770Z,25.10
2022-12-03T01:33:58.388Z,26.90
2022-12-03T01:37:40.292Z,24.80
2022-12-03T01:41:24.911Z,23.20
2022-12-03T01:45:18.229Z,22.70
2022-12-03T01:49:00.745Z,28.10
2022-12-03T01:52:42.957Z,24.80
2022-12-03T01:56:25.061Z,18.40
2022-12-03T02:00:11.053Z,22.60
2022-12-03T02:03:53.341Z,25.50
2022-12-03T02:07:35.689Z,19.80
2022-12-03T02:11:25.518Z,25.90
2022-12-03T02:15:09.322Z,25.10
2022-12-03T02:18:51.838Z,22.90
2022-12-03T02:23:00.058Z,21.40
2022-12-03T02:26:42.370Z,19.90
2022-12-03T02:30:26.422Z,20.50
2022-12-03T02:34:10.987Z,19.20
2022-12-03T02:37:58.734Z,23.60
2022-12-03T02:41:59.851Z,17.90
2022-12-03T02:45:48.434Z,24.60
2022-12-03T02:49:30.854Z,22.90
2022-12-03T02:53:17.877Z,23.30
2022-12-03T02:57:01.214Z,22.40
2022-12-03T03:00:44.919Z,22.90
2022-12-03T03:04:27.680Z,20.70
2022-12-03T03:08:11.828Z,20.70
2022-12-03T03:11:54.557Z,19.80
2022-12-03T03:15:39.164Z,20.10
2022-12-03T03:19:26.145Z,23.40
2022-12-03T03:23:10.813Z,22.60
2022-12-03T03:26:54.047Z,22.20
2022-12-03T03:30:37.583Z,19.70
2022-12-03T03:34:19.900Z,21.00
2022-12-03T03:38:02.827Z,24.40
2022-12-03T03:41:46.982Z,24.50
2022-12-03T03:45:29.809Z,25.70
2022-12-03T03:49:13.039Z,20.80
2022-12-03T03:52:56.906Z,20.80
2022-12-03T03:56:39.302Z,21.70
2022-12-03T04:00:21.921Z,20.20
2022-12-03T04:04:05.522Z,16.20
2022-12-03T04:07:50.193Z,19.50
2022-12-03T04:11:51.081Z,22.00
2022-12-03T04:15:33.598Z,22.50
2022-12-03T04:19:16.011Z,22.10
2022-12-03T04:22:58.019Z,22.10
2022-12-03T04:26:59.273Z,22.40
2022-12-03T04:30:41.825Z,22.60
2022-12-03T04:34:42.839Z,23.90
2022-12-03T04:38:25.258Z,22.80
2022-12-03T04:42:08.287Z,21.30
2022-12-03T04:45:51.055Z,17.00
2022-12-03T04:49:34.959Z,18.70
2022-12-03T04:53:17.577Z,22.80
2022-12-03T04:56:59.787Z,21.20
2022-12-03T05:00:42.508Z,22.20
2022-12-03T05:04:25.126Z,22.60
2022-12-03T05:08:07.370Z,15.30
2022-12-03T05:11:49.806Z,19.80
2022-12-03T05:15:32.179Z,16.90
2022-12-03T05:19:14.889Z,18.70
2022-12-03T05:22:57.612Z,15.20
2022-12-03T05:26:40.128Z,19.30
2022-12-03T05:30:22.817Z,18.00
2022-12-03T05:34:05.263Z,19.00
2022-12-03T05:37:47.882Z,16.00
2022-12-03T05:41:49.240Z,18.50
2022-12-03T05:45:34.972Z,18.70
2022-12-03T05:49:17.142Z,19.20
2022-12-03T05:53:00.077Z,20.70
2022-12-03T05:56:42.483Z,23.10
2022-12-03T06:00:30.842Z,16.80
2022-12-03T06:04:13.046Z,22.20
2022-12-03T06:07:55.568Z,24.30
2022-12-03T06:11:38.183Z,21.20
2022-12-03T06:15:20.906Z,21.90
2022-12-03T06:19:03.422Z,18.70
2022-12-03T06:22:46.555Z,22.40
2022-12-03T06:26:30.242Z,22.70
2022-12-03T06:30:14.763Z,21.30
2022-12-03T06:33:57.176Z,21.50
2022-12-03T06:37:39.182Z,22.60
2022-12-03T06:41:21.597Z,20.00
2022-12-03T06:45:04.963Z,21.40
2022-12-03T06:48:47.450Z,21.20
2022-12-03T06:52:29.765Z,22.20
2022-12-03T06:56:12.381Z,23.60
2022-12-03T06:59:54.456Z,24.30
2022-12-03T07:03:37.413Z,25.00
2022-12-03T07:07:19.727Z,24.40
2022-12-03T07:11:02.141Z,21.30
2022-12-03T07:14:44.706Z,20.60
2022-12-03T07:18:26.870Z,20.80
2022-12-03T07:22:09.182Z,31.40
2022-12-03T07:25:52.004Z,34.90
2022-12-03T07:29:34.420Z,37.10
2022-12-03T07:33:17.247Z,30.30
2022-12-03T07:36:59.659Z,26.20
2022-12-03T07:40:42.278Z,24.80
2022-12-03T07:44:24.695Z,52.60
2022-12-03T07:48:07.414Z,29.20
2022-12-03T07:51:57.270Z,38.70
2022-12-03T07:55:39.926Z,26.30
2022-12-03T07:59:22.340Z,32.30
2022-12-03T08:03:04.753Z,24.30
2022-12-03T08:06:48.089Z,26.00
2022-12-03T08:10:30.299Z,26.60
2022-12-03T08:14:19.030Z,22.70
2022-12-03T08:18:07.925Z,25.00
2022-12-03T08:21:50.548Z,17.20
2022-12-03T08:25:33.796Z,24.90
2022-12-03T08:29:19.783Z,24.30
2022-12-03T08:33:02.195Z,25.60
2022-12-03T08:36:45.530Z,25.60
2022-12-03T08:40:41.055Z,26.20
2022-12-03T08:44:29.046Z,26.30
2022-12-03T08:48:24.415Z,23.70
2022-12-03T08:52:21.476Z,22.50
2022-12-03T08:56:25.802Z,25.50
2022-12-03T09:00:24.514Z,23.70
2022-12-03T09:04:24.600Z,27.70
2022-12-03T09:08:07.021Z,22.70
2022-12-03T09:11:56.422Z,24.70
2022-12-03T09:15:38.835Z,24.20
2022-12-03T09:19:23.247Z,24.40
2022-12-03T09:23:05.611Z,24.50
2022-12-03T09:26:48.027Z,22.80
2022-12-03T09:30:30.440Z,24.00
2022-12-03T09:34:12.854Z,24.50
2022-12-03T09:37:55.064Z,25.80
2022-12-03T09:41:37.483Z,23.60
2022-12-03T09:45:20.100Z,26.60
2022-12-03T09:49:04.377Z,25.60
2022-12-03T09:52:49.764Z,26.60
2022-12-03T09:56:34.590Z,25.30
2022-12-03T10:00:20.677Z,25.60
2022-12-03T10:04:03.064Z,28.20
2022-12-03T10:07:46.374Z,28.50
2022-12-03T10:11:29.699Z,24.50
2022-12-03T10:15:15.107Z,23.30
2022-12-03T10:19:00.773Z,28.20
2022-12-03T10:22:43.393Z,30.30
2022-12-03T10:26:40.047Z,27.20
2022-12-03T10:30:23.481Z,24.70
2022-12-03T10:34:05.998Z,28.70
2022-12-03T10:38:07.875Z,29.00
2022-12-03T10:41:50.998Z,34.10
2022-12-03T10:45:33.310Z,31.10
2022-12-03T10:49:18.651Z,29.10
2022-12-03T10:53:01.724Z,38.30
2022-12-03T10:56:44.959Z,64.80
2022-12-03T11:00:33.005Z,38.60
2022-12-03T11:04:34.834Z,38.60
2022-12-03T11:08:23.766Z,69.30
2022-12-03T11:12:33.890Z,54.30
2022-12-03T11:16:06.294Z,37.60
2022-12-03T11:19:50.008Z,56.70
2022-12-03T11:23:44.428Z,33.30
2022-12-03T11:28:14.666Z,33.10
2022-12-03T11:31:46.864Z,35.20
2022-12-03T11:35:37.251Z,35.50
2022-12-03T11:39:48.149Z,30.90
2022-12-03T11:43:52.684Z,30.20
2022-12-03T11:47:45.248Z,30.40
2022-12-03T11:51:29.772Z,32.80
2022-12-03T11:55:37.990Z,31.30
2022-12-03T11:59:20.201Z,34.30
2022-12-03T12:03:02.182Z,35.20
2022-12-03T12:06:50.143Z,34.60
2022-12-03T12:10:40.634Z,32.50
2022-12-03T12:14:26.769Z,31.10
2022-12-03T12:18:33.952Z,35.60
2022-12-03T12:22:27.222Z,34.30
2022-12-03T12:26:09.839Z,27.40
2022-12-03T12:30:01.765Z,29.90
2022-12-03T12:33:44.194Z,35.10
2022-12-03T12:37:47.213Z,34.70
2022-12-03T12:41:30.526Z,34.40
2022-12-03T12:45:20.927Z,35.90
2022-12-03T12:49:12.252Z,34.80
2022-12-03T12:53:01.304Z,35.80
2022-12-03T12:56:46.285Z,36.40
2022-12-03T13:00:29.043Z,32.40
2022-12-03T13:04:21.162Z,36.60
2022-12-03T13:08:08.854Z,33.10
2022-12-03T13:11:55.943Z,40.40
2022-12-03T13:15:48.989Z,29.30
2022-12-03T13:19:43.541Z,39.00
2022-12-03T13:23:33.098Z,34.70
2022-12-03T13:27:18.458Z,32.40
2022-12-03T13:31:21.881Z,36.00
2022-12-03T13:35:27.108Z,38.00
2022-12-03T13:39:31.657Z,39.90
2022-12-03T13:43:19.331Z,39.10
2022-12-03T13:47:11.573Z,35.60
2022-12-03T13:50:54.146Z,34.20
2022-12-03T13:54:39.322Z,37.80
2022-12-03T14:45:34.328Z,51.50
2022-12-03T14:49:17.324Z,43.50
2022-12-03T14:52:59.894Z,50.50
2022-12-03T14:56:41.899Z,52.50
2022-12-03T15:00:25.058Z,49.20
2022-12-03T15:04:08.822Z,50.30
2022-12-03T15:08:00.713Z,45.80
2022-12-03T15:11:48.923Z,48.90
2022-12-03T15:15:32.532Z,48.90
2022-12-03T15:19:16.397Z,53.20
2022-12-03T15:22:59.658Z,47.10
2022-12-03T15:26:44.164Z,51.70
2022-12-03T15:30:42.351Z,49.30
2022-12-03T15:34:29.183Z,44.70
2022-12-03T15:38:17.097Z,51.20
2022-12-03T15:42:01.904Z,47.00
2022-12-03T15:46:04.034Z,50.70
2022-12-03T15:49:39.280Z,47.80
2022-12-03T15:53:25.530Z,46.40
2022-12-03T15:57:08.756Z,49.90
2022-12-03T16:00:54.976Z,52.50
2022-12-03T16:04:37.964Z,46.70
2022-12-03T16:08:22.363Z,51.30
2022-12-03T16:12:05.353Z,52.20
2022-12-03T16:15:47.716Z,50.00
2022-12-03T16:19:30.080Z,50.60
2022-12-03T16:23:12.404Z,50.20
2022-12-03T16:26:54.705Z,45.50
2022-12-03T16:30:38.911Z,52.80
2022-12-03T16:34:42.067Z,53.00
2022-12-03T16:38:12.301Z,54.40
2022-12-03T16:41:54.704Z,53.50
2022-12-03T16:45:56.453Z,47.60
2022-12-03T16:49:38.891Z,53.40
2022-12-03T16:53:21.205Z,47.30
2022-12-03T16:57:04.128Z,55.60
2022-12-03T17:00:46.235Z,49.10
2022-12-03T17:04:28.549Z,50.80
2022-12-03T17:08:11.216Z,47.60
2022-12-03T17:11:53.580Z,49.70
2022-12-03T17:15:38.445Z,46.90
2022-12-03T17:19:20.867Z,53.80
2022-12-03T17:23:04.329Z,50.90
2022-12-03T17:26:46.549Z,55.50
2022-12-03T17:30:28.725Z,59.70
2022-12-03T17:34:10.935Z,56.00
2022-12-03T17:37:53.403Z,60.80
2022-12-03T17:41:35.661Z,53.10
2022-12-03T17:45:18.797Z,54.60
2022-12-03T17:49:01.208Z,55.00
2022-12-03T17:52:44.548Z,52.50
2022-12-03T17:56:26.549Z,51.20
2022-12-03T18:00:09.785Z,55.50
2022-12-03T18:03:54.977Z,64.80
2022-12-03T18:07:37.429Z,55.40
2022-12-03T18:11:20.816Z,55.10
2022-12-03T18:15:04.037Z,46.50
2022-12-03T18:18:46.268Z,57.80
2022-12-03T18:22:29.060Z,56.40
2022-12-03T18:26:11.705Z,51.10
2022-12-03T18:29:54.316Z,55.10
2022-12-03T18:33:36.941Z,56.30
2022-12-03T18:37:19.665Z,54.20
2022-12-03T18:41:02.179Z,51.10
2022-12-03T18:44:49.652Z,54.60
2022-12-03T18:48:32.159Z,58.50
2022-12-03T18:52:16.595Z,59.20
2022-12-03T18:55:58.801Z,55.20
2022-12-03T18:59:42.035Z,59.10
2022-12-03T19:03:24.307Z,56.60
2022-12-03T19:07:06.661Z,56.90
2022-12-03T19:11:00.544Z,57.60
2022-12-03T19:14:42.854Z,51.90
2022-12-03T19:18:25.167Z,57.90
2022-12-03T19:22:08.253Z,57.60
2022-12-03T19:26:01.168Z,51.70
2022-12-03T19:29:43.369Z,53.80
2022-12-03T19:33:28.669Z,59.00
2022-12-03T19:37:10.961Z,57.30
2022-12-03T19:41:08.738Z,60.70
2022-12-03T19:44:51.254Z,56.30
2022-12-03T19:48:40.566Z,56.70
2022-12-03T19:52:24.685Z,51.70
2022-12-03T19:56:13.632Z,54.20
2022-12-03T19:59:57.380Z,54.70
2022-12-03T20:03:44.932Z,49.30
2022-12-03T20:07:30.174Z,56.10
2022-12-03T20:11:18.568Z,52.40
2022-12-03T20:15:03.585Z,55.50
2022-12-03T20:18:48.007Z,53.90
2022-12-03T20:22:32.265Z,58.30
2022-12-03T20:26:23.895Z,49.20
2022-12-03T20:30:07.137Z,51.40
2022-12-03T20:33:56.208Z,43.00
2022-12-03T20:37:43.208Z,40.50
2022-12-03T20:41:28.619Z,49.80
2022-12-03T20:45:11.328Z,49.40
2022-12-03T20:48:54.338Z,50.70
2022-12-03T20:52:57.894Z,53.20
2022-12-03T20:56:55.486Z,54.90
2022-12-03T21:00:45.736Z,44.20
2022-12-03T21:04:47.071Z,48.90
2022-12-03T21:08:42.177Z,48.20
2022-12-03T21:12:36.554Z,52.70
2022-12-03T21:21:55.772Z,47.00
2022-12-03T21:25:51.371Z,46.20
2022-12-03T21:29:42.735Z,64.10
2022-12-03T21:33:38.810Z,48.00
2022-12-03T21:37:36.589Z,55.10
2022-12-03T21:41:27.605Z,46.40
2022-12-03T21:45:26.017Z,47.10
2022-12-03T21:49:47.658Z,56.80
2022-12-03T21:52:58.131Z,81.20
2022-12-03T21:56:52.266Z,50.20
2022-12-03T22:00:45.046Z,48.20
2022-12-03T22:06:04.671Z,48.00
2022-12-03T22:09:55.774Z,47.90
2022-12-03T22:13:51.499Z,54.60
2022-12-03T22:17:44.835Z,44.90
2022-12-03T22:21:36.361Z,47.10
2022-12-03T22:25:27.479Z,42.60
2022-12-03T22:29:22.253Z,41.60
2022-12-03T22:33:17.453Z,45.90
2022-12-03T22:37:08.720Z,38.30
2022-12-03T22:41:08.101Z,40.10
2022-12-03T22:45:01.720Z,48.30
2022-12-03T22:48:54.019Z,48.90
2022-12-03T22:52:46.711Z,46.30
2022-12-03T22:56:39.881Z,44.40
2022-12-03T23:00:43.290Z,47.90
2022-12-03T23:04:36.177Z,42.60
2022-12-03T23:08:33.026Z,41.40
2022-12-03T23:12:24.014Z,48.20
2022-12-03T23:16:17.283Z,41.20
2022-12-03T23:20:09.426Z,43.10
2022-12-03T23:24:01.670Z,43.70
2022-12-03T23:27:51.869Z,40.70
2022-12-03T23:31:42.468Z,42.40
2022-12-03T23:35:34.354Z,45.40
2022-12-03T23:39:24.824Z,45.20
2022-12-03T23:43:16.672Z,40.50
2022-12-03T23:47:13.130Z,36.80
2022-12-03T23:51:19.952Z,43.40
2022-12-03T23:55:11.333Z,34.80
2022-12-03T23:59:02.855Z,42.60
